LiveATC.Net - Listen to live air traffic control over the Internet! Contact LiveATC.net for advertising information


ICAO: EBBR  IATA: BRU   Airport: Brussels National Airport
City: Brussels
Country: Belgium   Continent: Europe
EBBR METAR Weather: EBBR 061950Z 19008KT CAVOK 06/02 Q1034 NOSIG
EBBR Flight Activity (FlightAware)
EBBU Brussels Control
Feed Status: DOWN
Last heard on: 2015-03-04 12:20:03 (2 days 7 hours 46 minutes ago)
EBBU Brussels Control Audio Archives
FacilityFrequency
Brussels Control (East)128.200


NOTICE

Unauthorized use prohibited. See LiveATC.net Terms of Service


Find LiveATC Audio Streams


Airport/ARTCC Code

Frequency
(e.g., 124.400, 128.75)
Site-wide search

Browse LiveATC Feeds
LiveATC Coverage Map
Top 50 LiveATC Feeds
Bad Weather Areas

LiveATC FAQ
Offer a LiveATC Feed
Contact LiveATC.net
Press Inquiries

LiveATC on iPhone
LiveATC on Android

LiveATC Mobile
(Mobile browser)

ATC Audio Archives
Interesting Recordings

LiveATC Forums


Home Page
About LiveATC.net
Make a Donation
LiveATC Bookstore

Terms of Use
Privacy Policy

ATC/Radar Sites
U.S. ARTCC Freqs
Canadian Air Freqs

AIRMETs/SIGMETs

FAA Airport Status
Nat'l Airspace Status
Arrival Demand Charts


Server Software By:
Icecast.org
Liquidsoap

Please make a donation to help us keep growing!